Terminal Aerodrome Forecast
Issued by NWS

Home | Current Version | Previous Version | Text Only | Print | Product List | Glossary On
Versions: 1 2 3 4 5 6 7 8 9 10 11 12 13 14 15 16 17 18 19
000
FTUS42 KILM 251100
TAFCRE
TAF
KCRE 251120Z 2512/2612 27010KT P6SM SCT025 OVC100
     FM251300 29010KT P6SM BKN100
     FM251700 33006KT P6SM SKC
     FM252300 VRB03KT P6SM SKC=

USA.gov is the U.S. government's official web portal to all federal, state and local government web resources and services.